Time;durP1;ratioP1;P1;durP2;ratioP2;P2;SDS_P1;SDS_P2;PMS_P1;PMS_P2;Temp;Humidity;BMP_temperature;BMP_pressure;BME280_temperature;BME280_humidity;BME280_pressure;Samples;Min_cycle;Max_cycle;Signal;HPM_P1;HPM_P2
2023/03/05 00:01:40;;;;;;;11.95;2.35;;;;;;;1.91;100.00;102007.28;10398007;28;20068;-79
2023/03/05 00:06:41;;;;;;;8.85;2.15;;;;;;;1.99;100.00;102008.13;10413205;28;20046;-80
2023/03/05 00:11:41;;;;;;;10.48;2.53;;;;;;;2.05;100.00;102012.03;10414929;28;20042;-80
2023/03/05 00:16:42;;;;;;;10.52;2.08;;;;;;;2.03;100.00;101976.03;10396702;28;20049;-79
2023/03/05 00:21:42;;;;;;;8.20;1.95;;;;;;;2.03;100.00;101970.59;10380708;28;20365;-79
2023/03/05 00:26:43;;;;;;;6.80;1.63;;;;;;;1.83;100.00;101961.09;10414234;28;20056;-78
2023/03/05 00:31:43;;;;;;;5.45;1.77;;;;;;;1.83;100.00;101963.81;10397261;28;20045;-79
2023/03/05 00:36:48;;;;;;;14.88;2.50;;;;;;;1.76;100.00;101972.66;10413241;28;20046;-78
2023/03/05 00:41:49;;;;;;;13.55;4.30;;;;;;;1.64;100.00;101963.13;10413148;28;20037;-78
2023/03/05 00:46:50;;;;;;;7.78;2.63;;;;;;;1.70;100.00;101967.88;10396201;28;20033;-78
2023/03/05 00:51:50;;;;;;;6.82;2.45;;;;;;;1.68;100.00;101964.50;10396019;28;20106;-78
2023/03/05 00:56:51;;;;;;;11.52;2.17;;;;;;;1.73;100.00;101962.09;10377547;28;20096;-79
2023/03/05 01:01:51;;;;;;;7.07;2.25;;;;;;;1.68;100.00;101937.34;10347187;28;20038;-79
2023/03/05 01:06:52;;;;;;;5.90;2.10;;;;;;;1.81;100.00;101937.66;10313439;28;20057;-79
2023/03/05 01:11:52;;;;;;;12.23;2.10;;;;;;;1.81;100.00;101928.69;10330607;28;20395;-79
2023/03/05 01:16:53;;;;;;;4.85;2.13;;;;;;;1.77;100.00;101925.44;10329821;28;20058;-77
2023/03/05 01:21:53;;;;;;;8.65;3.00;;;;;;;1.80;100.00;101930.56;10316734;28;20225;-78
2023/03/05 01:26:54;;;;;;;9.07;2.75;;;;;;;1.71;100.00;101909.84;10322379;28;20042;-79
2023/03/05 01:31:54;;;;;;;8.75;2.00;;;;;;;1.73;100.00;101907.81;10372166;28;20038;-79
2023/03/05 01:36:55;;;;;;;8.93;2.15;;;;;;;1.68;100.00;101904.78;10369488;28;20065;-79
2023/03/05 01:41:55;;;;;;;11.05;2.65;;;;;;;1.80;100.00;101908.84;10369646;28;20026;-78
2023/03/05 01:46:56;;;;;;;6.43;2.10;;;;;;;1.70;100.00;101894.59;10412191;28;20034;-79
2023/03/05 01:52:16;;;;;;;6.68;2.22;;;;;;;1.73;100.00;101894.22;10361733;28;20033;-79
2023/03/05 01:57:25;;;;;;;14.85;2.70;;;;;;;1.70;100.00;101872.03;10396279;28;20048;-78
2023/03/05 02:02:26;;;;;;;4.13;1.75;;;;;;;1.73;100.00;101874.38;10368310;28;20038;-78
2023/03/05 02:07:26;;;;;;;10.85;2.03;;;;;;;1.76;100.00;101866.75;10369463;28;20034;-78
2023/03/05 02:12:27;;;;;;;10.23;1.80;;;;;;;1.72;100.00;101857.25;10370544;28;20133;-78
2023/03/05 02:17:27;;;;;;;3.17;1.60;;;;;;;1.63;100.00;101847.41;10384166;28;20041;-78
2023/03/05 02:22:28;;;;;;;5.18;2.50;;;;;;;1.50;100.00;101818.09;10380958;28;20518;-78
2023/03/05 02:27:33;;;;;;;9.23;1.90;;;;;;;1.76;100.00;101850.47;10352371;28;20038;-81
2023/03/05 02:32:34;;;;;;;5.63;1.88;;;;;;;1.67;100.00;101843.34;10334946;28;20054;-81
2023/03/05 02:37:34;;;;;;;4.85;1.23;;;;;;;1.52;100.00;101813.34;10369815;28;20037;-78
2023/03/05 02:42:35;;;;;;;4.80;1.52;;;;;;;1.59;100.00;101836.06;10351077;28;20418;-79
2023/03/05 02:47:35;;;;;;;3.83;1.60;;;;;;;1.64;100.00;101826.56;10369879;28;20929;-78
2023/03/05 02:52:36;;;;;;;7.82;1.80;;;;;;;1.53;100.00;101808.75;10368760;28;20054;-77
2023/03/05 02:57:37;;;;;;;6.85;1.80;;;;;;;1.56;100.00;101819.28;10335677;28;20076;-79
2023/03/05 03:02:37;;;;;;;7.05;1.90;;;;;;;1.48;100.00;101800.28;10367395;28;20070;-77
2023/03/05 03:07:38;;;;;;;5.45;1.80;;;;;;;1.51;100.00;101797.22;10369455;28;20064;-79
2023/03/05 03:12:39;;;;;;;5.03;1.88;;;;;;;1.33;100.00;101773.84;10335361;28;20467;-78
2023/03/05 03:17:39;;;;;;;6.75;1.73;;;;;;;1.33;100.00;101798.28;10350046;28;20417;-79
2023/03/05 03:22:40;;;;;;;4.82;1.60;;;;;;;1.32;100.00;101790.28;10335727;28;20187;-79
2023/03/05 03:27:41;;;;;;;4.82;1.92;;;;;;;1.33;100.00;101770.31;10367736;28;20050;-79
2023/03/05 03:32:41;;;;;;;12.02;2.58;;;;;;;1.46;100.00;101791.47;10349807;28;20112;-79
2023/03/05 03:37:42;;;;;;;8.48;2.28;;;;;;;1.51;100.00;101787.22;10350771;28;20102;-79
2023/03/05 03:42:42;;;;;;;6.07;2.20;;;;;;;1.52;100.00;101771.78;10388917;28;20044;-79
2023/03/05 03:47:43;;;;;;;7.20;2.58;;;;;;;1.45;100.00;101760.78;10415285;28;20049;-77
2023/03/05 03:52:43;;;;;;;6.05;2.25;;;;;;;1.45;100.00;101759.91;10399013;28;20029;-77
2023/03/05 03:57:44;;;;;;;7.63;1.90;;;;;;;1.37;100.00;101744.53;10416520;28;20123;-77
2023/03/05 04:02:44;;;;;;;3.03;2.28;;;;;;;1.36;100.00;101737.38;10397271;28;20038;-77
2023/03/05 04:07:45;;;;;;;8.27;2.33;;;;;;;1.42;100.00;101742.97;10414309;28;20038;-78
2023/03/05 04:12:45;;;;;;;9.43;2.80;;;;;;;1.39;100.00;101746.03;10397756;28;20037;-77
2023/03/05 04:17:45;;;;;;;5.07;2.00;;;;;;;1.28;100.00;101722.00;10415044;28;20049;-77
2023/03/05 04:22:46;;;;;;;7.05;2.47;;;;;;;1.32;100.00;101720.59;10416807;28;20030;-78
2023/03/05 04:27:47;;;;;;;9.52;3.10;;;;;;;1.38;100.00;101724.50;10414005;28;20056;-78
2023/03/05 04:32:47;;;;;;;8.20;2.83;;;;;;;1.32;100.00;101701.59;10413847;28;20060;-78
2023/03/05 04:37:47;;;;;;;5.90;2.42;;;;;;;1.32;100.00;101690.75;10413681;28;20374;-78
2023/03/05 04:42:48;;;;;;;10.00;2.40;;;;;;;1.39;100.00;101707.22;10380284;28;20042;-79
2023/03/05 04:47:48;;;;;;;8.02;1.83;;;;;;;1.37;100.00;101696.53;10396917;28;20033;-77
2023/03/05 04:52:49;;;;;;;14.00;3.95;;;;;;;1.40;100.00;101700.75;10413123;28;20068;-78
2023/03/05 04:57:49;;;;;;;6.65;3.40;;;;;;;1.34;100.00;101691.44;10396427;28;20041;-78
2023/03/05 05:02:50;;;;;;;7.50;1.98;;;;;;;1.36;100.00;101700.25;10414525;28;20037;-77
2023/03/05 05:07:55;;;;;;;6.97;1.77;;;;;;;1.33;100.00;101706.03;10396551;28;20037;-78
2023/03/05 05:12:56;;;;;;;3.55;1.80;;;;;;;1.31;100.00;101680.94;10410916;28;20074;-78
2023/03/05 05:17:57;;;;;;;2.28;1.80;;;;;;;1.39;100.00;101682.78;10411077;28;20098;-78
2023/03/05 05:22:57;;;;;;;4.22;2.10;;;;;;;1.44;100.00;101690.41;10395429;28;20088;-78
2023/03/05 05:27:58;;;;;;;10.00;2.25;;;;;;;1.47;100.00;101698.19;10410879;28;20029;-79
2023/03/05 05:32:58;;;;;;;6.40;2.15;;;;;;;1.35;100.00;101671.44;10406860;28;20042;-78
2023/03/05 05:37:59;;;;;;;7.10;3.33;;;;;;;1.35;100.00;101693.13;10368886;28;20034;-78
2023/03/05 05:42:59;;;;;;;6.18;1.90;;;;;;;1.19;100.00;101671.47;10371488;28;20030;-78
2023/03/05 05:48:00;;;;;;;4.57;2.13;;;;;;;1.21;100.00;101681.13;10406858;28;20045;-77
2023/03/05 05:53:00;;;;;;;5.65;2.28;;;;;;;1.11;100.00;101685.03;10378169;28;20046;-78
2023/03/05 05:58:01;;;;;;;6.97;2.13;;;;;;;1.04;100.00;101679.47;10393853;28;20098;-78
2023/03/05 06:03:01;;;;;;;4.43;1.75;;;;;;;1.13;100.00;101683.84;10410890;28;20045;-77
2023/03/05 06:08:01;;;;;;;9.15;2.25;;;;;;;1.18;100.00;101684.19;10411065;28;20244;-78
2023/03/05 06:13:02;;;;;;;6.57;2.03;;;;;;;1.08;100.00;101680.81;10410386;28;20057;-78
2023/03/05 06:18:03;;;;;;;6.78;2.40;;;;;;;0.87;100.00;101647.94;10409282;28;20045;-78
2023/03/05 06:23:03;;;;;;;9.65;2.65;;;;;;;0.84;100.00;101660.00;10392937;28;20104;-77
2023/03/05 06:28:03;;;;;;;7.50;2.33;;;;;;;0.83;100.00;101671.00;10410627;28;20045;-78
2023/03/05 06:33:05;;;;;;;7.53;2.63;;;;;;;0.74;100.00;101662.03;10373443;28;20042;-77
2023/03/05 06:38:06;;;;;;;7.82;2.50;;;;;;;0.72;100.00;101669.50;10370129;28;20049;-77
2023/03/05 06:43:07;;;;;;;10.55;3.03;;;;;;;0.69;100.00;101665.25;10359181;28;20101;-76
2023/03/05 06:48:07;;;;;;;7.80;3.20;;;;;;;0.71;100.00;101656.97;10408854;28;20049;-77
2023/03/05 06:53:08;;;;;;;7.30;2.53;;;;;;;0.84;100.00;101660.00;10410513;28;20037;-77
2023/03/05 06:58:08;;;;;;;6.03;2.65;;;;;;;0.98;100.00;101672.03;10409911;28;20482;-77
2023/03/05 07:03:09;;;;;;;10.30;2.67;;;;;;;0.94;100.00;101641.69;10391166;28;20056;-77
2023/03/05 07:08:10;;;;;;;10.63;3.22;;;;;;;1.08;100.00;101640.13;10391594;28;20041;-78
2023/03/05 07:13:10;;;;;;;12.88;3.20;;;;;;;1.36;100.00;101666.84;10391421;28;20060;-77
2023/03/05 07:18:11;;;;;;;9.30;3.15;;;;;;;1.40;100.00;101652.75;10413851;28;20030;-77
2023/03/05 07:23:11;;;;;;;9.80;3.75;;;;;;;1.43;100.00;101657.00;10359131;28;20041;-78
2023/03/05 07:28:12;;;;;;;9.18;3.10;;;;;;;1.47;100.00;101647.50;10357603;28;20533;-78
2023/03/05 07:33:12;;;;;;;6.03;2.30;;;;;;;1.54;100.00;101642.19;10374566;28;20087;-73
2023/03/05 07:38:13;;;;;;;6.75;2.67;;;;;;;1.64;100.00;101648.25;10374974;28;20145;-77
2023/03/05 07:43:13;;;;;;;4.70;1.98;;;;;;;1.80;100.00;101640.03;10375905;28;20034;-78
2023/03/05 07:48:15;;;;;;;7.55;2.40;;;;;;;2.02;100.00;101630.22;10335733;28;20069;-77
2023/03/05 07:53:15;;;;;;;8.40;2.40;;;;;;;2.22;100.00;101636.03;10317325;28;20592;-78
2023/03/05 07:58:17;;;;;;;11.38;2.30;;;;;;;2.24;100.00;101638.59;10301296;28;20110;-78
2023/03/05 08:03:18;;;;;;;5.93;2.05;;;;;;;2.26;100.00;101622.09;10333501;28;20053;-77
2023/03/05 08:08:18;;;;;;;8.15;2.30;;;;;;;2.48;100.00;101623.97;10316890;28;20046;-78
2023/03/05 08:13:19;;;;;;;8.80;1.67;;;;;;;2.62;100.00;101620.47;10323536;28;20041;-77
2023/03/05 08:18:19;;;;;;;5.63;1.10;;;;;;;2.85;100.00;101619.53;10360784;28;20061;-77
2023/03/05 08:23:19;;;;;;;4.75;1.08;;;;;;;2.87;100.00;101601.16;10349362;28;20046;-78
2023/03/05 08:28:20;;;;;;;7.03;2.53;;;;;;;3.15;100.00;101611.44;10348955;28;20030;-77
2023/03/05 08:33:20;;;;;;;3.42;0.98;;;;;;;3.12;100.00;101596.31;10342628;28;20121;-72
2023/03/05 08:38:21;;;;;;;5.47;0.95;;;;;;;3.25;100.00;101601.09;10407225;28;20064;-78
2023/03/05 08:43:21;;;;;;;2.72;1.30;;;;;;;3.42;100.00;101594.41;10392993;28;20049;-78
2023/03/05 08:48:22;;;;;;;11.70;1.33;;;;;;;3.44;100.00;101592.34;10375588;28;20064;-78
2023/03/05 08:53:23;;;;;;;5.25;1.88;;;;;;;3.62;100.00;101594.69;10382835;28;20053;-78
2023/03/05 08:58:23;;;;;;;4.82;1.13;;;;;;;3.65;100.00;101577.09;10383275;28;20041;-78
2023/03/05 09:03:24;;;;;;;11.50;2.47;;;;;;;3.84;100.00;101571.06;10399791;28;20097;-78
2023/03/05 09:08:24;;;;;;;9.50;1.85;;;;;;;3.95;100.00;101575.16;10404319;28;20042;-77
2023/03/05 09:13:25;;;;;;;8.15;1.55;;;;;;;4.02;100.00;101569.78;10401090;28;20037;-77
2023/03/05 09:18:25;;;;;;;9.25;1.00;;;;;;;4.16;100.00;101562.56;10366398;28;20094;-76
2023/03/05 09:23:26;;;;;;;3.78;0.60;;;;;;;4.16;100.00;101547.06;10330087;28;20148;-71
2023/03/05 09:28:26;;;;;;;7.07;1.27;;;;;;;4.39;100.00;101537.81;10330350;28;21998;-78
2023/03/05 09:33:27;;;;;;;2.22;0.80;;;;;;;4.72;100.00;101531.78;10320589;28;20049;-78
2023/03/05 09:38:27;;;;;;;2.22;0.57;;;;;;;4.72;100.00;101512.69;10371285;28;20038;-78
2023/03/05 09:44:02;;;;;;;4.35;0.60;;;;;;;4.93;100.00;101526.22;10314492;28;20045;-78
2023/03/05 09:49:14;;;;;;;3.22;0.82;;;;;;;5.05;100.00;101499.22;10359210;28;20034;-78
2023/03/05 09:54:19;;;;;;;8.05;1.33;;;;;;;5.31;100.00;101503.94;10337992;28;20101;-79
2023/03/05 09:59:23;;;;;;;5.80;0.75;;;;;;;4.92;100.00;101531.88;10407406;28;20037;-79
2023/03/05 10:04:26;;;;;;;7.60;1.15;;;;;;;3.65;100.00;101479.06;10408453;28;20140;-80
2023/03/05 10:09:49;;;;;;;3.42;0.90;;;;;;;3.83;100.00;101522.22;10337144;28;20029;-79
2023/03/05 10:14:49;;;;;;;3.70;1.90;;;;;;;4.23;100.00;101538.94;10393099;28;20049;-70
2023/03/05 10:20:13;;;;;;;1.92;0.90;;;;;;;4.42;100.00;101518.31;10408798;28;20037;-79
2023/03/05 10:25:29;;;;;;;5.18;1.35;;;;;;;4.98;100.00;101518.31;10408615;28;20033;-79
2023/03/05 10:30:38;;;;;;;4.17;1.10;;;;;;;5.26;100.00;101520.94;10362088;28;20048;-79
2023/03/05 10:35:44;;;;;;;4.00;1.88;;;;;;;5.52;100.00;101518.50;10391197;28;20145;-79
2023/03/05 10:40:46;;;;;;;4.78;0.90;;;;;;;5.20;100.00;101515.47;10382017;28;20268;-80
2023/03/05 10:45:48;;;;;;;3.05;0.75;;;;;;;5.09;100.00;101499.69;10350999;28;20050;-79
2023/03/05 10:51:10;;;;;;;3.92;0.90;;;;;;;5.15;100.00;101494.25;10332614;28;20095;-79
2023/03/05 10:56:11;;;;;;;3.05;0.70;;;;;;;5.46;100.00;101406.34;10351798;28;20038;-78
2023/03/05 11:01:11;;;;;;;3.45;0.70;;;;;;;6.36;100.00;101459.78;10373422;28;20068;-78
2023/03/05 11:06:12;;;;;;;3.08;0.70;;;;;;;6.61;100.00;101447.09;10409277;28;20103;-78
2023/03/05 11:11:17;;;;;;;5.15;0.98;;;;;;;6.51;100.00;101405.72;10392027;28;20067;-79
2023/03/05 11:16:31;;;;;;;1.33;1.00;;;;;;;5.92;100.00;101417.53;10408550;28;20063;-79
2023/03/05 11:21:32;;;;;;;3.70;0.70;;;;;;;6.25;100.00;101401.13;10392367;28;20045;-78
2023/03/05 11:26:32;;;;;;;4.68;0.50;;;;;;;6.74;100.00;101397.00;10409603;28;20042;-78
2023/03/05 11:31:33;;;;;;;5.78;0.68;;;;;;;7.04;100.00;101380.00;10357972;28;20037;-78
2023/03/05 11:36:35;;;;;;;4.60;0.80;;;;;;;7.31;100.00;101358.78;10350137;28;20048;-78
2023/03/05 11:41:58;;;;;;;4.68;0.55;;;;;;;7.70;100.00;101367.78;10374441;28;20025;-78
2023/03/05 11:47:01;;;;;;;4.50;0.65;;;;;;;6.53;100.00;101291.44;10366307;28;20156;-79
2023/03/05 11:52:29;;;;;;;2.15;0.95;;;;;;;6.08;100.00;101376.13;10366343;28;20061;-80
2023/03/05 11:57:34;;;;;;;2.47;0.80;;;;;;;5.90;100.00;101274.78;10353213;28;20410;-80
2023/03/05 12:02:35;;;;;;;6.50;1.77;;;;;;;7.19;100.00;101341.38;10365317;28;20068;-79
2023/03/05 12:07:41;;;;;;;1.67;0.70;;;;;;;7.34;100.00;101341.94;10381483;28;20047;-79
2023/03/05 12:13:11;;;;;;;5.60;1.88;;;;;;;6.79;100.00;101333.41;10381955;28;20071;-80
2023/03/05 12:18:25;;;;;;;7.80;1.75;;;;;;;6.26;100.00;101332.56;10380160;28;20049;-80
2023/03/05 12:23:26;;;;;;;2.40;0.60;;;;;;;7.20;100.00;101296.53;10412151;28;20041;-79
2023/03/05 12:28:33;;;;;;;3.10;0.70;;;;;;;7.37;100.00;101303.13;10414921;28;20030;-82
2023/03/05 12:33:37;;;;;;;15.27;2.97;;;;;;;7.18;100.00;101294.00;10415801;28;20038;-80
2023/03/05 12:38:38;;;;;;;1.88;0.60;;;;;;;7.28;100.00;101291.59;10413721;28;20033;-82
2023/03/05 12:43:38;;;;;;;2.08;0.70;;;;;;;7.42;100.00;101292.34;10395778;28;20049;-81
2023/03/05 12:48:42;;;;;;;3.97;0.70;;;;;;;7.38;100.00;101276.56;10412521;28;20037;-80
2023/03/05 12:53:43;;;;;;;2.75;0.93;;;;;;;7.18;100.00;101282.22;10396082;28;20044;-81
2023/03/05 12:58:45;;;;;;;6.93;0.73;;;;;;;7.44;100.00;101260.09;10395645;28;20041;-81
2023/03/05 13:03:49;;;;;;;3.75;1.33;;;;;;;7.15;100.00;101258.00;10380925;28;20119;-80
2023/03/05 13:09:02;;;;;;;3.50;0.55;;;;;;;6.89;100.00;101250.81;10396057;28;20056;-82
2023/03/05 13:14:02;;;;;;;6.15;0.70;;;;;;;6.83;100.00;101255.28;10411398;28;20041;-83
2023/03/05 13:19:03;;;;;;;2.13;0.70;;;;;;;6.41;100.00;101249.41;10392810;28;20069;-82
2023/03/05 13:24:12;;;;;;;5.80;1.38;;;;;;;6.93;100.00;101231.00;10394382;28;20041;-83
2023/03/05 13:29:13;;;;;;;5.13;0.50;;;;;;;7.93;100.00;101223.75;10393535;28;20061;-83
2023/03/05 13:34:33;;;;;;;6.60;0.90;;;;;;;7.57;100.00;101223.50;10395145;28;20077;-84
2023/03/05 13:39:37;;;;;;;4.75;0.95;;;;;;;8.99;100.00;101194.06;10411634;28;20045;-83
2023/03/05 13:44:38;;;;;;;4.03;0.40;;;;;;;9.14;100.00;101185.38;10376205;28;20037;-85
2023/03/05 13:49:38;;;;;;;4.10;0.45;;;;;;;9.00;100.00;101182.84;10336077;28;20046;-85
2023/03/05 13:54:39;;;;;;;5.78;0.40;;;;;;;8.22;100.00;101168.13;10312335;28;20474;-85
2023/03/05 13:59:39;;;;;;;3.95;0.65;;;;;;;7.66;100.00;101171.97;10280512;28;20042;-85
2023/03/05 14:04:43;;;;;;;5.03;0.50;;;;;;;7.38;100.00;101167.84;10313085;28;20042;-85
2023/03/05 14:09:46;;;;;;;3.90;0.57;;;;;;;8.24;100.00;101165.16;10312725;28;20365;-85
2023/03/05 14:14:46;;;;;;;4.45;1.05;;;;;;;7.55;100.00;101156.31;10312834;28;20058;-86
2023/03/05 14:19:47;;;;;;;5.85;0.95;;;;;;;6.80;100.00;101181.81;10337064;28;20069;-86
2023/03/05 14:24:51;;;;;;;5.18;0.88;;;;;;;6.66;100.00;101162.78;10353073;28;20038;-82
2023/03/05 14:29:51;;;;;;;2.42;0.40;;;;;;;7.59;100.00;101152.03;10368501;28;20030;-84
2023/03/05 14:34:55;;;;;;;1.70;0.70;;;;;;;8.31;100.00;101126.66;10319199;28;20417;-85
2023/03/05 14:39:58;;;;;;;1.60;0.50;;;;;;;8.09;100.00;101125.25;10352097;28;20103;-84
2023/03/05 14:45:10;;;;;;;6.07;0.77;;;;;;;7.42;100.00;101100.59;10373684;28;20128;-85
2023/03/05 14:50:38;;;;;;;1.63;0.93;;;;;;;7.84;100.00;101105.38;10392279;28;20033;-82
2023/03/05 14:55:39;;;;;;;4.20;0.47;;;;;;;7.91;100.00;101124.47;10386977;28;20055;-84
2023/03/05 15:00:39;;;;;;;6.60;0.63;;;;;;;6.77;100.00;101105.66;10359612;28;20048;-86
2023/03/05 15:05:40;;;;;;;2.03;0.60;;;;;;;6.34;100.00;101109.13;10376210;28;20034;-83
2023/03/05 15:10:41;;;;;;;2.20;0.50;;;;;;;5.94;100.00;101120.25;10386097;28;20041;-83
2023/03/05 15:15:42;;;;;;;1.85;0.50;;;;;;;5.64;100.00;101112.59;10408495;28;20029;-81
2023/03/05 15:20:43;;;;;;;6.35;1.33;;;;;;;5.71;100.00;101099.75;10410239;28;20046;-84
2023/03/05 15:25:43;;;;;;;1.95;0.85;;;;;;;5.75;100.00;101109.22;10394857;28;20041;-84
2023/03/05 15:30:45;;;;;;;5.00;0.95;;;;;;;5.58;100.00;101113.47;10393088;28;20041;-84
2023/03/05 15:35:45;;;;;;;5.28;1.92;;;;;;;5.55;100.00;101103.81;10390303;28;20045;-83
2023/03/05 15:40:46;;;;;;;9.15;1.23;;;;;;;5.93;100.00;101102.19;10397224;28;20064;-84
2023/03/05 15:45:47;;;;;;;2.72;0.88;;;;;;;5.59;100.00;101109.69;10397072;28;20052;-84
2023/03/05 15:50:47;;;;;;;3.38;1.00;;;;;;;5.34;100.00;101102.19;10417171;28;20033;-85
2023/03/05 15:55:47;;;;;;;5.72;1.33;;;;;;;5.06;100.00;101088.81;10382045;28;20052;-83
2023/03/05 16:00:48;;;;;;;4.15;0.95;;;;;;;5.27;100.00;101090.44;10379965;28;20041;-84
2023/03/05 16:05:48;;;;;;;4.82;1.38;;;;;;;5.33;100.00;101089.59;10381481;28;20026;-81
2023/03/05 16:10:49;;;;;;;1.77;0.60;;;;;;;5.09;100.00;101071.19;10392915;28;20064;-78
2023/03/05 16:15:51;;;;;;;3.10;0.60;;;;;;;4.92;100.00;101062.59;10413628;28;20041;-83
2023/03/05 16:20:52;;;;;;;2.08;0.55;;;;;;;4.99;100.00;101071.63;10414521;28;20048;-83
2023/03/05 16:25:52;;;;;;;2.25;1.05;;;;;;;4.57;100.00;101044.59;10391132;28;20041;-84
2023/03/05 16:30:54;;;;;;;2.08;0.93;;;;;;;4.40;100.00;101078.78;10375070;28;20411;-82
2023/03/05 16:36:27;;;;;;;0.63;0.50;;;;;;;4.15;100.00;101082.09;10334165;28;20050;-82
2023/03/05 16:41:28;;;;;;;2.42;0.60;;;;;;;3.98;100.00;101059.84;10383215;28;20044;-83
2023/03/05 16:46:28;;;;;;;0.85;0.50;;;;;;;3.91;100.00;101058.19;10364556;28;20042;-84
2023/03/05 16:51:29;;;;;;;4.05;0.90;;;;;;;3.80;100.00;101038.66;10349679;28;20561;-83
2023/03/05 16:56:29;;;;;;;8.55;1.77;;;;;;;3.81;100.00;101029.44;10342622;28;20038;-85
2023/03/05 17:01:30;;;;;;;3.80;0.88;;;;;;;3.84;100.00;101037.22;10322980;28;20069;-82
2023/03/05 17:06:30;;;;;;;1.92;0.70;;;;;;;3.75;100.00;101029.44;10351769;28;20057;-86
2023/03/05 17:11:31;;;;;;;4.07;0.90;;;;;;;3.78;100.00;101046.19;10378797;28;20037;-83
2023/03/05 17:16:31;;;;;;;4.40;0.70;;;;;;;3.70;100.00;101035.50;10383969;28;20041;-82
2023/03/05 17:21:32;;;;;;;7.20;1.33;;;;;;;3.66;100.00;101036.94;10376263;28;20041;-84
2023/03/05 17:26:35;;;;;;;4.65;1.13;;;;;;;3.61;100.00;101042.16;10433399;28;20029;-82
2023/03/05 17:31:35;;;;;;;6.05;1.30;;;;;;;3.50;100.00;101034.59;10419182;28;20033;-84
2023/03/05 17:36:38;;;;;;;8.77;1.60;;;;;;;3.34;100.00;101014.81;10434821;28;20497;-81
2023/03/05 17:41:38;;;;;;;4.22;1.13;;;;;;;3.33;100.00;101034.06;10431079;28;20072;-82
2023/03/05 17:46:39;;;;;;;4.00;1.35;;;;;;;3.31;100.00;101033.44;10410226;28;20045;-83
2023/03/05 17:51:39;;;;;;;3.65;1.73;;;;;;;3.21;100.00;101033.84;10388014;28;20057;-82
2023/03/05 17:56:39;;;;;;;5.15;1.10;;;;;;;3.22;100.00;101032.78;10434777;28;20068;-82
2023/03/05 18:01:40;;;;;;;7.50;1.85;;;;;;;3.16;100.00;101028.13;10432304;28;20484;-83
2023/03/05 18:06:40;;;;;;;6.30;1.40;;;;;;;3.05;100.00;101018.69;10449458;28;20410;-83
2023/03/05 18:11:41;;;;;;;6.78;1.42;;;;;;;3.02;100.00;101013.66;10413510;28;20361;-80
2023/03/05 18:16:41;;;;;;;6.40;1.98;;;;;;;2.97;100.00;101006.06;10415034;28;20414;-74
2023/03/05 18:21:42;;;;;;;4.55;1.35;;;;;;;2.92;100.00;101000.41;10434769;28;20052;-81
2023/03/05 18:26:42;;;;;;;7.32;1.40;;;;;;;2.88;100.00;100998.31;10417875;28;20535;-81
2023/03/05 18:31:43;;;;;;;3.22;1.65;;;;;;;2.80;100.00;100980.25;10433816;28;20045;-84
2023/03/05 18:36:43;;;;;;;4.15;1.27;;;;;;;2.76;100.00;100978.97;10432957;28;20037;-83
2023/03/05 18:41:45;;;;;;;3.55;1.95;;;;;;;2.78;100.00;100976.91;10416527;28;20048;-80
2023/03/05 18:46:45;;;;;;;5.95;1.80;;;;;;;2.75;100.00;100969.13;10448822;28;20029;-81
2023/03/05 18:51:46;;;;;;;3.38;1.75;;;;;;;2.79;100.00;100964.97;10431563;28;20108;-81
2023/03/05 18:56:46;;;;;;;3.67;1.20;;;;;;;2.77;100.00;100958.91;10449559;28;20037;-82
2023/03/05 19:01:47;;;;;;;3.15;1.33;;;;;;;2.68;100.00;100949.25;10415364;28;20041;-81
2023/03/05 19:06:47;;;;;;;7.25;2.38;;;;;;;2.70;100.00;100948.00;10416622;28;20049;-81
2023/03/05 19:11:48;;;;;;;5.68;2.00;;;;;;;2.54;100.00;100908.41;10420512;28;20045;-82
2023/03/05 19:16:48;;;;;;;8.27;1.25;;;;;;;2.63;100.00;100931.66;10388456;28;20044;-81
2023/03/05 19:21:52;;;;;;;3.80;1.42;;;;;;;2.43;100.00;100915.22;10440335;28;20512;-80
2023/03/05 19:26:59;;;;;;;9.32;1.55;;;;;;;2.48;100.00;100921.94;10439109;28;20075;-82
2023/03/05 19:31:59;;;;;;;6.97;2.45;;;;;;;2.48;100.00;100933.66;10397570;28;20051;-82
2023/03/05 19:37:00;;;;;;;8.85;1.90;;;;;;;2.40;100.00;100914.81;10414515;28;20044;-82
2023/03/05 19:42:00;;;;;;;9.48;2.88;;;;;;;2.38;100.00;100911.44;10365976;28;20033;-81
2023/03/05 19:47:01;;;;;;;9.43;3.15;;;;;;;2.33;100.00;100903.88;10398289;28;20040;-80
2023/03/05 19:52:03;;;;;;;7.97;2.15;;;;;;;2.31;100.00;100905.94;10397867;28;20045;-81
2023/03/05 19:57:03;;;;;;;9.50;3.00;;;;;;;1.96;100.00;100834.47;10380745;28;20079;-80
2023/03/05 20:02:03;;;;;;;7.88;2.60;;;;;;;2.28;100.00;100900.91;10400143;28;20045;-81
2023/03/05 20:07:05;;;;;;;6.30;2.67;;;;;;;2.24;100.00;100879.78;10375071;28;20605;-81
2023/03/05 20:12:06;;;;;;;7.35;2.08;;;;;;;2.24;100.00;100872.47;10356564;28;20042;-81
2023/03/05 20:17:07;;;;;;;8.25;2.03;;;;;;;2.33;100.00;100881.31;10360452;28;20030;-80
2023/03/05 20:22:07;;;;;;;5.07;2.08;;;;;;;2.33;100.00;100875.88;10347574;28;20042;-77
2023/03/05 20:27:08;;;;;;;11.77;3.95;;;;;;;2.29;100.00;100847.44;10393180;28;20029;-81
2023/03/05 20:32:08;;;;;;;8.63;1.88;;;;;;;2.38;100.00;100862.53;10363363;28;20068;-82
2023/03/05 20:37:09;;;;;;;9.80;2.05;;;;;;;2.24;100.00;100833.63;10379813;28;20038;-81
2023/03/05 20:42:09;;;;;;;4.20;1.88;;;;;;;2.33;100.00;100845.97;10363346;28;20119;-81
2023/03/05 20:47:29;;;;;;;6.20;1.80;;;;;;;2.31;100.00;100835.31;10382272;28;20041;-81
2023/03/05 20:52:30;;;;;;;3.20;1.50;;;;;;;2.42;100.00;100847.50;10424117;28;20152;-82
2023/03/05 20:57:30;;;;;;;10.45;2.55;;;;;;;2.38;100.00;100827.22;10435313;28;20041;-77
2023/03/05 21:02:31;;;;;;;9.45;1.80;;;;;;;2.40;100.00;100817.81;10439161;28;20427;-81
2023/03/05 21:07:31;;;;;;;5.32;1.83;;;;;;;2.35;100.00;100808.59;10425543;28;20037;-81
2023/03/05 21:12:32;;;;;;;9.55;2.30;;;;;;;2.27;100.00;100787.03;10436724;28;20041;-81
2023/03/05 21:17:32;;;;;;;14.63;2.22;;;;;;;2.38;100.00;100791.91;10454152;28;20037;-86
2023/03/05 21:22:33;;;;;;;5.95;1.63;;;;;;;2.42;100.00;100799.44;10444506;28;20046;-82
2023/03/05 21:27:33;;;;;;;9.52;2.17;;;;;;;2.37;100.00;100784.78;10382166;28;20059;-81
2023/03/05 21:32:34;;;;;;;5.80;1.90;;;;;;;2.40;100.00;100779.78;10425718;28;20052;-81
2023/03/05 21:37:41;;;;;;;8.80;2.53;;;;;;;2.39;100.00;100769.94;10435786;28;20029;-82
2023/03/05 21:42:44;;;;;;;8.20;1.65;;;;;;;2.40;100.00;100768.91;10412982;28;20044;-82
2023/03/05 21:47:45;;;;;;;8.10;1.27;;;;;;;2.31;100.00;100742.13;10365043;28;20041;-82
2023/03/05 21:52:47;;;;;;;5.20;1.55;;;;;;;2.38;100.00;100753.84;10430569;28;20128;-81
2023/03/05 21:57:47;;;;;;;3.10;1.10;;;;;;;2.33;100.00;100729.16;10366444;28;20054;-81
2023/03/05 22:02:48;;;;;;;4.28;1.30;;;;;;;2.38;100.00;100743.00;10372619;28;20064;-81
2023/03/05 22:07:49;;;;;;;4.68;1.30;;;;;;;2.37;100.00;100742.13;10335856;28;20034;-80
2023/03/05 22:13:13;;;;;;;5.25;1.50;;;;;;;2.38;100.00;100729.41;10339115;28;20037;-81
2023/03/05 22:18:15;;;;;;;3.97;1.17;;;;;;;2.34;100.00;100717.28;10378933;28;20037;-80
2023/03/05 22:23:16;;;;;;;3.58;1.30;;;;;;;2.28;100.00;100707.22;10353763;28;20037;-81
2023/03/05 22:28:16;;;;;;;4.25;1.25;;;;;;;2.40;100.00;100709.13;10338853;28;20034;-81
2023/03/05 22:33:17;;;;;;;6.60;1.88;;;;;;;2.42;100.00;100711.66;10345069;28;20061;-81
2023/03/05 22:38:17;;;;;;;3.63;1.65;;;;;;;2.46;100.00;100706.63;10332687;28;20042;-80
2023/03/05 22:43:18;;;;;;;2.50;1.45;;;;;;;2.49;100.00;100701.63;10312759;28;20042;-82
2023/03/05 22:48:19;;;;;;;6.38;1.95;;;;;;;2.43;100.00;100691.56;10346852;28;20033;-81
2023/03/05 22:53:20;;;;;;;6.38;1.83;;;;;;;2.55;100.00;100697.25;10319029;28;20038;-79
2023/03/05 22:58:20;;;;;;;13.10;1.50;;;;;;;2.52;100.00;100690.34;10328666;28;20050;-81
2023/03/05 23:03:21;;;;;;;3.58;1.75;;;;;;;2.54;100.00;100680.13;10334027;28;20624;-71
2023/03/05 23:08:21;;;;;;;6.25;1.60;;;;;;;2.47;100.00;100671.09;10349184;28;20042;-82